x

8419317 - Wells, Me (welm1) Weather Station

6:24 - Wed 6th May 2015 All times are EDT. -4 hours from GMT.

  • Wind
    16mph, 20mph gusts
  • Sea Temp 51°f
  • Ar Temp 58°f
  • Sea Pressure 1019.8mb
  • 8419317 - Wells, Me
  • 8419317 - Wells, Me

More Historic Weather Station data

Upgrade to MSW Pro to gain access to the past 30 days of data for over 8000 Wavebouys and Weather Stations around the globe.

Join Pro

Comparision Forecast

View Surf forecast
   
Qua 05/06 6:24 16 20 mph 1019.8mb 51f 58f
6:18 17 18 mph 1019.8mb 51f 59f
6:12 14 16 mph 1019.8mb 51f 60f
6:06 16 20 mph 1019.8mb 50f 59f
6:00 16 18 mph 1019.9mb 50f 58f
5:54 15 17 mph 1019.9mb 50f 59f
5:48 16 20 mph 1020mb 50f 58f
5:42 18 21 mph 1020mb 50f 58f
5:36 16 20 mph 1020.1mb 50f 58f
5:30 17 20 mph 1020.1mb 50f 57f
5:24 16 21 mph 1020.2mb 50f 57f
5:18 15 18 mph 1020.3mb 50f 58f
5:12 14 18 mph 1020.3mb 49f 57f
5:06 17 22 mph 1020.2mb 49f 57f
5:00 18 21 mph 1020.3mb 49f 58f
4:54 20 21 mph 1020.4mb 49f 58f
4:48 18 21 mph 1020.5mb 49f 58f
4:42 18 22 mph 1020.5mb 49f 58f
4:36 20 22 mph 1020.6mb 49f 58f
4:30 17 22 mph 1020.7mb 49f 58f
4:24 21 23 mph 1020.7mb 49f 58f
4:18 21 24 mph 1020.9mb 48f 58f
4:12 22 23 mph 1020.9mb 48f 58f
4:06 18 23 mph 1021mb 48f 57f
4:00 21 24 mph 1021.1mb 48f 57f
3:54 21 26 mph 1021.2mb 48f 58f
3:48 22 24 mph 1021.3mb 48f 58f
3:42 20 23 mph 1021.3mb 48f 57f
3:36 21 23 mph 1021.4mb 47f 57f
3:30 20 24 mph 1021.5mb 47f 57f
3:24 18 22 mph 1021.5mb 47f 57f
3:18 21 24 mph 1021.6mb 47f 57f
3:12 21 24 mph 1021.7mb 47f 58f
3:06 21 24 mph 1021.8mb 47f 58f
3:00 17 22 mph 1021.9mb 47f 57f
2:54 20 22 mph 1021.9mb 47f 58f
2:48 20 22 mph 1022mb 46f 57f
2:42 20 23 mph 1022.2mb 46f 57f
2:36 18 22 mph 1022.2mb 46f 57f
2:30 17 21 mph 1022.3mb 46f 57f
2:24 18 23 mph 1022.4mb 46f 58f
2:18 20 22 mph 1022.5mb 46f 58f
2:12 17 21 mph 1022.6mb 46f 57f
2:06 17 20 mph 1022.6mb 46f 58f
2:00 15 20 mph 1022.7mb 46f -
1:54 16 20 mph 1022.8mb 46f 57f
1:48 16 20 mph 1022.9mb 46f 57f
1:42 16 18 mph 1023mb 46f 57f
1:36 15 17 mph 1023.1mb 46f 57f
1:30 15 18 mph 1023.2mb 46f 57f
1:24 13 16 mph 1023.3mb 46f 56f
1:18 14 16 mph 1023.4mb 46f 56f
1:12 11 15 mph 1023.5mb 46f 56f
1:06 10 13 mph 1023.5mb 46f 56f
1:00 11 15 mph 1023.6mb 46f 56f
12:54 13 15 mph 1023.7mb 46f 55f
12:48 11 15 mph 1023.8mb 46f 56f
12:42 13 15 mph 1023.9mb 46f 56f
12:36 13 15 mph 1024mb 46f 56f
12:30 13 16 mph 1024mb 46f 55f
12:24 13 14 mph 1024.2mb 46f 55f
12:18 13 14 mph 1024.3mb 46f 55f
12:12 9 11 mph 1024.3mb 46f 55f
12:06 10 11 mph 1024.5mb 46f 56f
12:00 9 11 mph 1024.6mb 46f 57f
11:54 9 10 mph 1024.7mb 46f 56f
11:48 9 10 mph 1024.7mb 46f 55f
11:42 9 10 mph 1024.7mb 46f 55f
11:36 9 13 mph 1024.8mb 45f 55f
11:30 10 13 mph 1024.9mb 45f 55f
11:24 9 13 mph 1024.8mb 45f 56f
11:18 9 10 mph 1024.9mb 45f 55f
11:12 8 10 mph 1024.9mb 45f 56f
11:06 8 10 mph 1024.9mb 45f 56f
11:00 7 9 mph 1024.9mb 45f 56f
10:54 9 11 mph 1025mb 45f 56f
10:48 9 10 mph 1025mb 45f -
10:42 7 11 mph 1025mb 45f 56f
10:36 9 13 mph 1025mb 45f 56f
10:30 13 15 mph 1025mb 45f 56f
10:24 8 10 mph 1025mb 45f 55f
10:18 8 10 mph 1025.1mb 44f 54f
10:12 8 10 mph 1025.1mb 44f 57f
10:06 9 14 mph 1025.1mb 44f 56f
10:00 11 13 mph 1025mb 44f 58f
9:54 9 10 mph 1025mb 44f 57f
9:48 9 10 mph 1025mb 44f 58f
9:42 8 9 mph 1025mb 44f 59f
9:36 8 9 mph 1025mb 44f 60f
9:30 7 9 mph 1025mb 44f 62f
9:24 5 6 mph 1024.9mb 44f 64f
9:18  -  mph 1025mb - 65f
9:12  -  mph 1025mb - 65f
9:06 6 9 mph 1025mb 44f 64f
9:00 7 9 mph 1025mb 44f 64f
8:54 7 10 mph 1025mb 44f 64f
8:48 7 9 mph 1025mb 44f 64f
8:42 8
mph
1025mb 44f 64f
8:36  -  2 mph 1025.1mb 44f 66f
8:30  -  1 mph 1025.1mb 44f 64f
8:24  -  1 mph 1025mb 44f 62f
8:18  -  1 mph 1025mb 44f 61f
8:12 1 2 mph 1025mb 44f 61f
8:06 2
mph
1024.9mb 44f 61f
8:00 1 5 mph 1025mb 44f 60f
7:54 3 5 mph 1024.9mb 44f 59f
7:48 3
mph
1024.9mb 44f 60f
7:42 2 5 mph 1024.8mb 44f 60f
7:36 3 5 mph 1024.8mb 44f 59f
7:30 3 5 mph 1024.9mb 44f 58f
7:24 3 5 mph 1024.9mb 44f 56f
7:18 2 3 mph 1024.9mb 44f 54f
7:12 3 5 mph 1024.9mb 44f 53f
7:06 3
mph
1025mb 44f 53f
7:00 1 3 mph 1024.9mb 44f 53f
6:54 3 5 mph 1024.8mb 44f 51f
6:48 6 7 mph 1024.7mb 44f 51f
6:42 3 6 mph 1024.6mb 44f 53f
6:36 3 6 mph 1024.5mb 44f 52f
6:30 2 5 mph 1024.4mb 44f 51f
6:24 2 3 mph 1024.3mb 44f 51f
6:18 1 2 mph 1024.3mb 44f 51f
6:12 3 5 mph 1024.3mb 44f 49f
6:06 3 5 mph 1024.1mb 43f 48f
6:00 5
mph
1024mb 43f 48f
5:54 5 6 mph 1024mb 43f 48f
5:48 5 6 mph 1023.9mb 43f 47f
5:42 6
mph
1023.8mb 43f 48f
5:36 6
mph
1023.8mb 43f 48f
5:30 5
mph
1023.7mb 43f 47f
5:24 5 6 mph 1023.7mb 43f 47f
5:18 5 6 mph 1023.7mb 43f 47f
5:12 5 6 mph 1023.7mb 43f 48f
5:06 5
mph
1023.7mb 43f 44f
5:00 5
mph
1023.7mb 43f 44f
4:54 5 6 mph 1023.6mb 43f 45f
4:48 5 6 mph 1023.7mb 43f 47f
4:42 5
mph
1023.7mb 43f 47f
4:36 5
mph
1023.6mb 43f 47f
4:30 5 6 mph 1023.5mb 43f 47f
4:24 6
mph
1023.5mb 42f 48f
4:18 5 6 mph 1023.5mb 43f 49f
4:12 6
mph
1023.5mb 43f 49f
4:06 6
mph
1023.4mb 42f 50f
4:00 6
mph
1023.4mb 42f 50f
3:54 5
mph
1023.3mb 42f 50f
3:48 5 6 mph 1023.3mb 42f 49f
3:42 5 6 mph 1023.2mb 42f 48f
3:36 5 6 mph 1023.2mb 42f 48f
3:30 5
mph
1023.3mb 42f 48f
3:24 3
mph
1023.3mb 42f 46f
3:18 2 5 mph 1023.3mb 42f 47f
3:12 5
mph
1023.4mb 42f 48f
3:06 3 5 mph 1023.4mb 42f 49f
3:00 2
mph
1023.4mb 42f 49f
2:54 1 2 mph 1023.4mb 42f 49f
2:48 3
mph
1023.4mb 42f 49f
2:42 2
mph
1023.4mb 42f 49f
2:36 1 2 mph - 42f 49f
2:30  -  2 mph - 42f 49f
2:24 2 3 mph 1023.3mb 42f 50f
2:18  -  mph - 42f 49f
2:12  -  mph - 41f 49f
2:06 3 5 mph 1023.3mb 41f 50f
2:00 5
mph
1023.4mb 41f 48f
1:54 3 5 mph 1023.4mb 42f 49f
1:48 5
mph
1023.4mb 42f 49f
1:42 2 3 mph 1023.4mb 42f 50f
1:36 2 5 mph 1023.4mb 41f 51f
1:30 3 6 mph 1023.4mb 41f 52f
1:24 3
mph
1023.5mb 41f 52f
1:18  -  3 mph 1023.6mb 41f 52f
1:12  -  3 mph 1023.6mb 41f 52f
1:06 2 3 mph 1023.6mb 41f 52f
1:00 1 3 mph 1023.6mb 41f 52f
12:54 3 5 mph 1023.6mb 42f 51f
12:48 1 2 mph 1023.6mb 42f 52f
12:42  -  2 mph 1023.5mb 42f 53f
12:36 1 2 mph 1023.4mb 42f 55f
12:30 1 2 mph 1023.4mb 42f 56f
12:24 2 3 mph 1023.4mb 42f 56f
12:18 1 5 mph 1023.3mb 42f 55f
12:12  -  2 mph 1023.3mb 42f 55f
12:06 1 3 mph 1023.2mb 42f 55f
12:00 2 5 mph 1023.1mb 42f 55f
Ter 05/05 11:54 2 5 mph 1023.1mb 42f 55f
11:48 2 5 mph 1022.9mb 42f 55f
11:42 2 3 mph 1022.7mb 42f 55f
11:36 3 5 mph 1022.6mb 42f 55f
11:30 3 5 mph 1022.5mb 42f 56f
11:24 3 5 mph 1022.4mb 42f 55f
11:18 2 6 mph 1022.4mb 42f 54f
11:12 2 7 mph 1022.4mb 42f 54f
11:06 5 7 mph 1022.3mb 42f 55f
11:00 5 6 mph 1022.3mb 42f 55f
10:54 2 6 mph 1022.3mb 42f 57f
10:48 2 5 mph 1022.3mb 42f 56f
10:42  -  3 mph 1022.2mb 42f 57f
10:36 3 5 mph 1022.1mb 42f 58f
10:30 5 7 mph 1022.1mb 42f 58f
10:24 5 6 mph 1022.1mb 42f 58f
10:18 3 5 mph 1022.1mb 42f 58f
10:12 3 5 mph 1022.1mb 42f 58f
10:06 3 6 mph 1022mb 42f 58f
10:00 5
mph
1022mb 43f 59f
9:54 3 5 mph 1022mb 43f 58f
9:48 3 5 mph 1022mb 44f 57f
9:42 5 6 mph 1022mb 45f 59f
9:36 3 5 mph 1021.9mb 45f 59f
9:30 3 5 mph 1021.8mb 47f 59f
9:24 3 6 mph 1021.8mb 48f 59f
9:18 5 6 mph 1021.8mb - -
9:12 5 6 mph 1021.7mb 49f 59f
9:06 3
mph
1021.6mb 49f 58f
9:00 3 5 mph 1021.6mb 49f 59f
8:54 3
mph
1021.6mb 49f 59f
8:48 2 3 mph 1021.5mb 50f -
8:42 3 5 mph 1021.5mb 50f 60f
8:36 3 5 mph 1021.3mb 49f 59f
8:30 5
mph
1021.3mb 49f 59f
8:24 5 6 mph 1021.3mb 49f 60f
8:18 5 6 mph 1021.3mb 49f 60f
8:12 2 8 mph 1021.2mb 49f 60f
8:06 8 9 mph 1021.1mb 49f 60f
8:00 6 9 mph 1021.1mb 48f 62f
7:54 2 5 mph 1021.1mb 47f 61f
7:48 2 5 mph 1021mb 47f 59f
7:42 5 6 mph 1021mb 47f 60f
7:36 5 6 mph 1020.9mb 47f 61f
7:30 6
mph
1020.8mb 47f 60f
7:24 5 6 mph 1020.9mb 46f 62f
7:18 5 6 mph 1020.8mb 46f 61f
7:12 6
mph
1020.7mb 46f 61f
7:06 6
mph
1020.6mb 46f 62f
7:00 6
mph
1020.6mb 46f 62f
6:54 6 7 mph 1020.5mb 46f 62f
6:48 7 9 mph 1020.5mb 46f 62f
6:42 8 9 mph 1020.4mb 46f 63f
6:36 9 10 mph 1020.5mb 46f 62f
6:30 9 10 mph 1020.5mb 46f 62f
6:24 9 10 mph 1020.6mb 46f 61f
6:18 10 11 mph 1020.6mb 46f 61f
6:12 10 11 mph 1020.6mb 46f 60f
6:06 10 14 mph 1020.6mb 46f 60f
6:00 11 14 mph 1020.7mb 46f 60f
5:54 13 16 mph 1020.7mb 46f 61f
5:48 14 15 mph 1020.8mb 46f 62f
5:42 14 16 mph 1020.7mb 46f 61f
5:36 13 15 mph 1020.7mb 46f 61f
5:30 11 13 mph - - -
5:24 11 16 mph 1020.7mb 45f 64f
5:18 14 15 mph 1020.8mb 45f 63f
5:12 13 16 mph 1020.7mb 45f 63f
5:06 14 16 mph 1020.7mb 45f 63f
5:00 13 15 mph 1020.7mb 44f 63f
4:54 14 17 mph 1020.8mb 44f 62f
4:48 15 17 mph 1020.8mb 44f 62f
4:42 14 17 mph 1020.8mb 44f 62f
4:36 17 18 mph 1020.8mb 44f 61f
4:30 14 17 mph 1020.7mb 44f 61f
4:24 16 17 mph 1020.8mb 44f 61f
4:18 14 16 mph 1021mb 44f 62f
4:06 10 13 mph 1021.4mb 46f 62f
4:00 5 9 mph 1021.4mb 46f 61f
3:54 8 11 mph 1021.2mb 46f 61f
3:48 8 11 mph - - -
3:42 10 13 mph 1021.4mb 45f 61f
3:36 6 10 mph 1021.5mb 45f 61f
3:30 9 11 mph 1021.5mb 45f 61f
3:24 7 9 mph 1021.6mb 44f 60f
3:18 9 11 mph 1021.6mb 44f 60f
3:12 10 11 mph 1021.6mb 44f 61f
3:06 6 7 mph 1021.7mb 44f 61f
3:00 6 7 mph 1021.6mb 44f 61f
2:54 3 6 mph 1021.6mb 44f 60f
2:48 5 6 mph 1021.6mb 43f 60f
2:42 2 3 mph 1021.7mb 43f 60f
2:36 3 6 mph 1021.5mb 43f 60f
2:30 5 7 mph 1021.6mb 43f 59f
2:24 7 10 mph 1021.7mb 43f 59f
2:18 10 11 mph 1021.6mb 42f 60f
2:12 6 7 mph 1021.6mb 42f 60f
2:06 3 8 mph 1021.7mb 42f 59f
2:00 8 10 mph 1021.7mb 42f 60f
1:54 9 10 mph 1021.7mb 42f 60f
1:48 6 8 mph 1021.7mb 42f 60f
1:42 5 10 mph 1021.7mb 42f 60f
1:36 8 11 mph 1021.6mb 42f 60f
1:30 5 7 mph 1021.7mb 42f 60f
1:24 7 9 mph 1021.7mb 42f 58f
1:18 8 10 mph 1021.7mb 42f 58f
1:12 9 13 mph 1021.7mb 42f 58f
1:06 8 9 mph 1021.7mb 42f 60f
1:00 6 8 mph 1021.7mb 42f 60f
12:54 7 10 mph 1021.7mb 42f 60f
12:48 10 13 mph 1021.5mb 42f -
12:42 11 13 mph 1021.6mb 42f -
12:36 9 11 mph 1021.7mb 42f -
12:30 9 11 mph 1021.6mb 42f -
12:24 9 11 mph 1021.6mb 42f -
12:18 10 14 mph 1021.5mb 42f -
12:12 10 11 mph 1021.5mb 42f -
12:06 8 13 mph 1021.6mb 42f -
12:00 9 13 mph 1021.6mb 42f -
11:54 7 9 mph 1021.5mb 42f -
11:48 6 10 mph - - -
11:42 9 13 mph 1021.4mb 42f -
11:36 8 14 mph 1021.3mb 42f -
11:30 10 14 mph 1021.3mb 42f -
11:24 10 14 mph 1021.2mb 42f -
11:18 10 16 mph 1021.2mb 42f -
11:12 11 15 mph 1021.1mb 42f 71f
11:06 9 15 mph 1021mb 42f 71f
11:00 11 18 mph 1021mb 42f 71f
10:54 9 16 mph 1020.9mb 42f 71f
10:48 13 17 mph - - -
10:42 9 15 mph 1020.9mb 42f 71f
10:36 9 20 mph 1020.9mb 42f 71f
10:30 9 18 mph 1020.8mb 42f 71f
10:18 10 17 mph 1020.8mb 42f 71f
10:12 11 22 mph 1020.7mb 42f 71f
10:06 14 22 mph 1020.5mb 42f 71f
10:00 14 22 mph 1020.5mb 43f 71f
9:54 17 23 mph 1020.5mb 43f 71f
9:48 13 20 mph 1020.5mb 44f 71f
9:42 14 18 mph 1020.3mb 44f 70f
9:36 15 25 mph 1020.3mb 44f 70f
9:30 11 20 mph 1020.4mb 44f 70f
9:24 13 20 mph 1020.4mb 45f 70f
9:18 17 21 mph 1020.3mb 46f 70f
9:12 11 20 mph 1020.4mb 46f 71f
9:06 13 16 mph 1020.3mb 46f 70f
9:00 14 18 mph 1020.3mb 46f 70f
8:54 8 16 mph 1020.3mb 46f 70f
8:48 13 16 mph 1020.2mb 46f 69f
8:42 13 18 mph 1020.1mb 46f 69f
8:36 15 18 mph 1020.2mb 46f 69f
8:30 15 20 mph 1020.2mb 46f 69f
8:24 16 23 mph 1020.1mb 46f 69f
8:18 13 20 mph 1020mb 46f 69f
8:12 13 18 mph 1020mb 46f 69f
8:06 14 24 mph 1020mb 46f 69f
8:00 14 17 mph 1019.8mb 45f 69f
7:48 16 21 mph 1019.7mb 45f 69f
7:42 8 14 mph 1019.7mb 45f 69f
7:36 7 10 mph 1019.7mb 45f 69f
7:30 8 9 mph 1019.6mb 45f 69f
7:24 6 9 mph 1019.5mb 45f 69f
7:06 5 7 mph 1019mb 45f 69f
7:00 6 9 mph 1019mb 45f 68f
6:54 6 8 mph 1018.9mb 45f 68f
6:48 6 7 mph 1018.8mb 45f 68f
6:42 6 7 mph 1018.7mb 45f 68f
6:36 5 8 mph 1018.5mb 45f 68f
6:30 3 8 mph 1018.3mb 44f 68f
6:24 3 8 mph 1018.2mb 44f 68f
6:18 5 8 mph 1018.2mb 44f -
6:12 3 10 mph 1018.2mb 44f 67f
6:06 7 9 mph 1018mb 44f 67f
6:00 6 8 mph 1017.9mb 44f 66f
5:54 5 8 mph 1017.8mb 44f 65f
5:48 5 7 mph 1017.6mb 44f 65f
5:42 5 6 mph 1017.5mb 44f 65f
5:36 5 7 mph 1017.4mb 44f 65f
5:30 6 8 mph 1017.3mb 44f 65f
5:24 6 8 mph 1017.3mb 44f 65f
5:18 6 8 mph 1017.3mb 44f 65f
5:12 5 7 mph 1017.2mb 44f 65f
5:06 6 7 mph 1017.1mb 44f 66f
5:00 5 7 mph 1017mb 44f 66f
4:54 6 7 mph 1016.9mb 44f 66f
4:48 5 8 mph 1016.8mb 44f 66f
4:42 6 9 mph 1016.8mb 44f 66f
4:36 7 9 mph 1016.6mb 44f 67f
4:30 7 10 mph 1016.6mb 44f 67f
4:24 6 9 mph 1016.6mb 44f 67f
4:06 6 11 mph 1016.2mb 43f 67f
4:00 8 13 mph 1016.2mb 43f 67f
3:54 7 10 mph 1016.1mb 44f 67f
3:48 7 10 mph 1016.2mb 43f 67f
3:36 7 13 mph 1015.9mb 44f 68f
3:30 7 10 mph 1016mb 43f -
3:24 6 8 mph 1015.9mb 43f 68f
3:18 7 10 mph 1015.8mb 43f 68f
3:12 6 10 mph 1015.7mb 43f 68f
3:00 6 10 mph 1015.5mb 43f 68f
2:54 6 10 mph 1015.4mb 43f 68f
2:48 7 13 mph 1015.4mb 43f 68f
2:36 8 11 mph 1015.3mb 43f 68f
1:54 6 15 mph 1015.4mb 42f 69f
1:48 7 14 mph 1015.4mb 42f 69f
1:42 9 15 mph 1015.3mb 42f 69f
1:36 10 15 mph 1015.2mb 42f 69f
1:30 10 16 mph 1015.2mb 42f 69f
1:24 10 16 mph 1015mb 42f 69f
1:18 13 18 mph 1015mb - -
1:12 11 20 mph 1015.1mb 42f 69f
1:06 9 15 mph 1015.2mb 42f 70f
1:00 9 16 mph 1015.2mb 42f 70f
12:54 9 15 mph 1015.2mb 42f 70f
12:48 11 20 mph - - -
12:42 11 17 mph 1015.2mb 42f 70f
12:36 13 18 mph 1015.2mb 42f 71f
12:30 9 16 mph 1015.2mb 42f 70f
12:24 9 14 mph 1015.2mb 42f 71f
12:18 10 16 mph 1015.3mb 42f 71f
12:12 10 15 mph 1015.3mb 42f 71f
12:06 7 15 mph 1015.4mb 42f 70f
12:00 10 16 mph 1015.4mb 42f 71f
Seg 05/04 11:54 10 16 mph 1015.4mb 42f 70f
11:48 10 15 mph 1015.4mb 42f 71f
11:42 14 17 mph 1015.4mb 42f 71f
11:36 15 18 mph 1015.5mb 42f 72f
11:30 13 20 mph 1015.5mb 42f 72f
11:24 11 16 mph 1015.5mb 42f 71f
11:18 13 16 mph 1015.4mb 42f 71f
11:12 13 17 mph 1015.5mb 42f 72f
11:06 13 20 mph 1015.6mb 42f 72f
11:00 14 20 mph 1015.6mb 42f 73f
10:54 13 18 mph 1015.7mb 42f 73f
10:48 15 23 mph 1015.7mb 42f 73f
10:42 11 21 mph 1015.8mb 42f 72f
10:30 11 16 mph 1015.8mb 42f 73f
10:24 15 21 mph 1015.9mb 42f 73f
10:18 11 17 mph 1015.9mb 42f 73f
10:12 14 17 mph 1015.9mb 42f 73f
10:06 14 18 mph 1015.9mb 42f 72f
10:00 11 14 mph 1016mb 42f 70f
9:48 9 10 mph 1016mb 42f 65f
9:42 7 10 mph 1016mb 42f 62f
9:36 7 10 mph 1016mb 42f 61f
9:30 7 9 mph 1016mb 43f 57f
9:24 5 7 mph 1016mb 43f 58f
9:18 3 6 mph 1016mb 43f 57f
9:00 7 8 mph 1015.9mb 45f -
8:54 6 7 mph 1015.8mb 46f 58f
8:48 5 7 mph 1015.8mb 47f 58f
8:42 5 9 mph 1015.7mb 49f 59f
8:36 9 10 mph 1015.7mb 50f 59f
8:30 8 11 mph 1015.7mb 51f 60f
8:24 9 13 mph 1015.6mb 52f 60f
8:18 10 16 mph 1015.5mb 52f 61f
8:12 14 16 mph 1015.5mb 52f 61f
8:06 9
mph
1015.4mb 52f 61f
8:00 10 15 mph 1015.3mb 52f 63f
7:54 14 17 mph 1015.4mb 52f 62f
7:48 14 16 mph 1015.4mb 52f 62f
7:42 15 17 mph 1015.3mb 52f 62f
7:36 16 17 mph 1015.3mb 52f 62f
7:30 15 20 mph 1015.2mb 51f 63f
7:24 16 17 mph 1015.3mb 51f 62f
7:18 16 17 mph 1015.2mb 51f 62f
7:12 16 17 mph 1015.2mb 51f 62f
7:06 16 21 mph 1015.2mb 50f 63f
7:00 14 15 mph 1015.2mb 50f 62f
6:54 14 18 mph 1015.2mb 50f 61f
6:48 16 17 mph 1015.3mb 50f 60f
6:42 15 17 mph 1015.3mb 50f 59f
6:36 15 16 mph 1015.4mb 50f 59f
6:30 16 18 mph 1015.4mb 50f 60f
6:24 17 22 mph 1015.5mb 50f 58f
6:18 17 21 mph 1015.5mb 49f 58f
6:12 17 21 mph 1015.6mb 49f 58f
6:06 17 21 mph 1015.6mb 49f 58f
6:00 21 23 mph 1015.7mb 49f 58f
5:54 20 23 mph 1015.8mb 49f 58f
5:48 21 23 mph 1015.8mb 49f 59f
5:42 21 24 mph 1015.9mb 49f 59f
5:30 20 22 mph - - -
5:24 20 22 mph 1016.1mb 48f 59f
5:18 18 22 mph 1016.1mb 48f 59f
5:12 21 24 mph 1016.3mb 48f 60f
5:06 18 25 mph 1016.3mb 49f 59f
5:00 23 26 mph 1016.5mb - -
4:54 23 26 mph 1016.5mb 48f 60f
4:48 21 24 mph 1016.4mb 48f 60f
4:42 21 26 mph 1016.5mb 48f 59f
4:36 23 25 mph 1016.7mb 47f 60f
4:30 20 23 mph 1016.6mb 47f 59f
4:24 21 25 mph 1016.7mb 47f 58f
4:18 23 25 mph 1016.8mb 46f 59f
4:12 22 26 mph 1016.7mb 46f 59f
4:06 22 25 mph 1016.9mb 46f 59f
4:00 22 26 mph 1017.1mb 46f 60f
3:54 18 23 mph 1017mb 47f 60f
3:48 22 25 mph 1017.1mb 47f 61f
3:42 20 23 mph 1017.1mb 47f 59f
3:36 22 24 mph 1017.3mb 48f 59f
3:30 22 25 mph 1017.5mb 49f 59f
3:24 22 28 mph 1017.4mb 49f 60f
3:18 23 28 mph 1017.6mb 49f 61f
3:12 20 22 mph 1017.6mb 48f 60f
3:06 21 25 mph 1017.7mb 48f 60f
3:00 24 26 mph 1017.8mb 48f 61f
2:54 22 25 mph 1017.9mb 47f 60f
2:48 20 23 mph 1017.9mb 47f 60f
2:42 21 25 mph 1018mb 47f 60f
2:36 20 22 mph 1018mb 46f 60f
2:30 18 22 mph 1018.1mb 46f 60f
2:24 16 18 mph 1018.1mb 46f 60f
2:18 17 21 mph 1018.1mb 45f 62f
2:12 18 21 mph 1018.2mb 45f 59f
2:06 20 23 mph 1018.2mb 44f 63f
2:00 21 24 mph 1018.2mb 44f 63f
1:54 20 23 mph 1018.1mb 44f 60f
1:48 21 26 mph 1018.2mb 44f 58f
1:42 22 25 mph 1018.2mb 43f 58f
1:36 23 28 mph 1018.4mb 43f 57f
1:30 24 28 mph 1018.4mb 43f 59f
1:24 18 23 mph 1018.4mb 43f 55f
1:06 15 21 mph 1018.8mb 43f 54f
1:00 17 20 mph 1018.8mb 43f 56f
12:54 18 33 mph 1018.7mb 43f 55f
12:48 21 25 mph 1018.6mb 43f 55f
12:36 20 22 mph 1019mb 43f 56f
12:30 17 22 mph 1019mb 43f 56f
12:24 20 24 mph 1019mb 43f 56f
12:18 16 20 mph 1019.2mb 43f 56f
12:12 10 14 mph 1019.3mb 43f 56f
12:06 9 11 mph 1019.4mb 43f 56f
12:00 14 18 mph 1019.4mb 43f 55f
11:54 14 17 mph 1019.6mb 44f 57f
11:48 3 6 mph 1019.9mb 44f 56f
11:42  -  9 mph 1019.9mb 43f 56f
11:36 10 14 mph 1020mb 43f 54f
11:30 10 13 mph 1020.1mb 44f 54f
11:18 9 10 mph 1020.3mb 44f 55f
11:12 7 9 mph 1020.3mb 44f 55f
11:06 7 10 mph 1020.4mb 44f 55f
11:00 8 10 mph 1020.4mb 44f 54f
10:54 8 10 mph 1020.5mb 44f 55f
10:48 7 9 mph 1020.5mb 44f 55f
10:36 7 9 mph 1020.6mb 44f 54f
10:24 7 9 mph 1020.4mb 44f 54f
10:18 7 8 mph 1020.5mb 44f 54f
10:12 7 8 mph 1020.5mb 44f 55f
10:06 6 7 mph 1020.5mb 44f 55f
10:00 5 6 mph 1020.4mb 44f 55f
9:54 5 6 mph 1020.4mb 44f 55f
9:48 6 7 mph 1020.5mb 44f 55f
9:42 6 7 mph 1020.5mb 45f 55f
9:36 5 6 mph 1020.5mb 45f 56f
9:30 5
mph
1020.5mb 45f 55f
9:24 3
mph
1020.6mb 45f 55f
9:18 3 5 mph 1020.5mb 45f 56f
9:00 5
mph
1020.6mb 46f 56f
8:54 5 6 mph 1020.7mb 46f 56f
8:48 3
mph
1020.7mb 46f 57f
8:42 3
mph
1020.7mb 46f 57f
8:30 2 3 mph 1020.7mb 46f 55f
8:24 2 3 mph 1020.7mb 46f 55f
8:18 2 3 mph 1020.7mb 46f 58f
8:12 2 3 mph 1020.6mb 46f 58f
8:06 1 2 mph 1020.6mb 46f 58f
8:00 1 2 mph 1020.6mb 46f 56f
7:48 2 3 mph 1020.7mb 46f 53f
7:42 2 3 mph 1020.5mb 46f 56f
7:36 1 2 mph 1020.4mb 46f 55f
7:30  -  1 mph 1020.4mb 46f 54f
7:24  -  1 mph 1020.4mb 46f 52f
7:18 1
mph
1020.4mb 46f 51f
7:12 2
mph
1020.3mb 46f 49f
7:06  -  1 mph 1020.3mb 46f 49f
7:00 1
mph
1020.3mb 46f 48f
6:54  -  mph 1020.2mb 46f 48f
6:48  -  2 mph 1020.2mb - -
6:42 2 3 mph 1020.2mb 46f 45f
6:36 2
mph
1020.1mb 46f 44f
6:30 1
mph
1020mb 46f 44f
6:24 1
mph
1020mb 46f 44f
6:18 1 2 mph 1020mb 46f 43f
6:12 2
mph
1019.9mb 46f 43f
6:06 1 2 mph 1019.8mb 46f 42f
6:00 2
mph
1019.8mb 46f 42f
5:54 2
mph
1019.7mb 46f 41f
5:48 2
mph
1019.5mb 46f 41f
5:42  -  mph 1019.4mb 46f 42f
5:36  -  mph 1019.5mb 46f 42f
5:30  -  2 mph 1019.4mb 46f 42f
5:24  -  1 mph 1019.4mb 46f 41f
5:18 1 2 mph 1019.4mb 46f 41f
5:12  -  mph 1019.4mb 46f 41f
5:06  -  2 mph 1019.3mb 46f 41f
5:00 2 3 mph 1019.3mb 46f 41f
4:54 2 3 mph 1019.3mb 46f 41f
4:48 1 3 mph 1019.3mb 46f 41f
4:42 2
mph
1019.3mb 46f 41f
4:36 1
mph
1019.3mb 46f 41f
4:30 2
mph
1019.3mb 46f 41f
4:24 2
mph
1019.3mb 45f 41f
4:18 1 2 mph 1019.3mb 45f 41f
4:12 2
mph
1019.3mb 45f 42f
4:06 2
mph
1019.3mb 45f 42f
4:00 2
mph
1019.4mb 45f 41f
3:54 2
mph
1019.3mb 45f 42f
3:48 1 2 mph 1019.3mb 45f 42f
3:42  -  2 mph 1019.2mb 45f 42f
3:36 1 2 mph 1019.2mb 45f 42f
3:30 1 2 mph 1019.2mb 45f 42f
3:24 2
mph
1019.2mb 45f 42f
3:18 1 2 mph 1019.2mb 45f 42f
3:12 1 2 mph 1019.1mb 45f 42f
3:06 2
mph
1019.1mb 45f 43f
3:00  -  1 mph 1019.1mb 45f 42f
2:48 2
mph
1019.1mb 45f 42f
2:24 2
mph
- - -
1:54 2 3 mph 1019.1mb 44f 43f
1:48 2
mph
1019.1mb 44f 43f
1:42 2 3 mph 1019mb 44f 43f
1:30 1 2 mph - - -
1:24 1 2 mph 1018.9mb 44f 43f
1:18 1
mph
1018.9mb 44f 43f
1:12 1 3 mph 1018.9mb 44f 43f
1:00 2
mph
1018.9mb 43f 44f
12:54 1
mph
1018.9mb 43f 44f
12:48  -  1 mph 1018.8mb 43f 44f
12:42 1 2 mph 1018.9mb 43f 44f
12:36 2
mph
1018.9mb 43f 44f
12:30  -  2 mph 1018.8mb 42f 44f
12:24 1 2 mph 1018.8mb 42f 44f
12:18 1 2 mph 1018.7mb 43f 45f
12:12  -  1 mph 1018.7mb 42f 45f
12:00  -  1 mph 1018.7mb 42f 45f
Dom 05/03 11:54  -  1 mph 1018.7mb 43f 45f
11:48  -  1 mph 1018.6mb 43f 45f
11:42 1 2 mph 1018.5mb 44f 45f
11:36 2
mph
1018.5mb 44f 45f
11:30 2 3 mph 1018.5mb 44f 45f
11:24 3
mph
1018.5mb 44f 45f
11:06 3
mph
1018.5mb 44f 45f
11:00 3
mph
1018.4mb 45f 45f
10:54 2 3 mph 1018.4mb 45f 45f
10:48 2 3 mph 1018.4mb 45f 45f
10:42 2 3 mph 1018.4mb 45f 46f
10:36 2 3 mph 1018.5mb 45f 46f
10:30 2
mph
1018.5mb 45f 46f
10:18 3
mph
1018.5mb 45f 47f
10:12 3
mph
1018.5mb 45f 46f
10:06 2 3 mph 1018.5mb 45f 46f
10:00 2 3 mph 1018.5mb 45f 46f
9:48 2
mph
1018.4mb 45f 48f
9:42  -  1 mph 1018.4mb 45f 48f
9:36 1 2 mph 1018.5mb 45f 48f
9:30 1 2 mph 1018.5mb 46f 48f
9:24 1
mph
1018.5mb 46f 49f
9:18 1 3 mph 1018.4mb 46f 49f
9:06  -  2 mph 1018.4mb 47f 49f
9:00 1 3 mph 1018.3mb 47f 49f
8:54 2 3 mph 1018.3mb 47f 49f
8:48 2 3 mph 1018.2mb 47f 49f
8:42 2 3 mph 1018.1mb 47f 49f
8:36 2 3 mph 1018mb 48f 50f
8:30 3
mph
1018mb 48f 50f
8:24 2 3 mph 1017.9mb 48f 50f
8:18 3
mph
1017.9mb 49f 50f
8:12 2 3 mph 1017.8mb 49f 50f
8:06 3 5 mph 1017.7mb 50f 50f
8:00 3 5 mph 1017.7mb 50f 50f
7:54 3 5 mph 1017.7mb 50f 50f
7:48 3 6 mph 1017.6mb 50f 50f
7:42 5 7 mph 1017.7mb 50f 50f
7:36 5 7 mph 1017.6mb 50f 50f
7:30 5 7 mph 1017.6mb 51f 50f
7:24 5 6 mph 1017.5mb 51f 51f
7:18 2 6 mph 1017.6mb 51f 51f
7:12 5 7 mph 1017.5mb 51f 51f
7:06 6 9 mph 1017.4mb 50f 51f
7:00 8 10 mph 1017.3mb 50f 51f
6:54 7 10 mph 1017.3mb 49f 51f
6:36 9 11 mph 1017.4mb 48f 52f
6:30 7 9 mph 1017.3mb 48f 52f
6:24 6 8 mph 1017.3mb 48f 53f
6:18 5 7 mph 1017.3mb 48f 53f
6:12 3 6 mph 1017.3mb 48f 53f
6:06 3 6 mph 1017.2mb 48f 53f
6:00 5 7 mph 1017.2mb 48f 53f
5:48 7 10 mph 1017.4mb 47f 52f
5:42 8 9 mph 1017.3mb 47f 52f
5:36 8 9 mph 1017.3mb 47f 52f
5:30 8 10 mph 1017.2mb 47f 52f
5:24 9 10 mph 1017.3mb 47f 52f
5:18 7 9 mph 1017.2mb 47f 52f
5:12 8 11 mph 1017.2mb 47f 52f
5:06 10 11 mph 1017.2mb 47f 52f
5:00 9 11 mph 1017.2mb 47f 52f
4:48 9 11 mph 1017.2mb 46f 51f
4:42 9 11 mph 1017.2mb 46f 52f
4:36 9 11 mph 1017.2mb 46f 52f
4:30 9 13 mph 1017.2mb 46f 51f
4:24 9 13 mph 1017.3mb 46f 51f
4:18 10 14 mph - - -
4:12 10 14 mph 1017.3mb 46f 51f
4:06 11 13 mph 1017.2mb 46f 52f
4:00 10 14 mph 1017.2mb 45f 52f
3:54 11 13 mph 1017.3mb 45f 52f
3:48 9 11 mph 1017.4mb 45f 52f
3:42 9 11 mph 1017.3mb 45f 51f
3:36 9 10 mph 1017.4mb 45f 51f
3:30 9 10 mph 1017.4mb 46f 51f
3:24 8 11 mph 1017.5mb 46f 51f
3:18 9 13 mph 1017.4mb 46f 51f
3:12 10 11 mph 1017.3mb 46f 51f
3:06 10 13 mph 1017.4mb 46f 50f
3:00 11 14 mph 1017.4mb 47f 51f
2:54 11 14 mph 1017.4mb 46f 51f
2:48 11 14 mph 1017.4mb 46f 51f
2:42 13 14 mph 1017.5mb 46f 51f
2:36 10 13 mph 1017.6mb 46f 51f
2:30 9 11 mph 1017.7mb 46f 51f
2:24 10 11 mph 1017.7mb 45f 51f
2:06 9 13 mph 1017.7mb 44f 50f
2:00 9 11 mph 1017.8mb 44f 51f
1:54 9 11 mph 1017.7mb 44f 51f
1:48 9 11 mph 1017.8mb 44f 51f
1:42 9 11 mph 1017.7mb 44f 50f
1:36 9 11 mph 1017.7mb 43f 50f
1:30 10 11 mph 1017.7mb 43f 51f
1:24 10 13 mph 1017.7mb 43f 50f
1:18 9 13 mph - - -
1:12 10 13 mph 1017.6mb 43f 51f
1:06 10 11 mph 1017.6mb 42f 51f
1:00 10 13 mph 1017.6mb 42f 51f
12:54 10 14 mph 1017.7mb 42f 50f
12:48 10 13 mph 1017.6mb 42f 50f
12:42 9 11 mph 1017.6mb 42f 50f
12:36 9 10 mph 1017.7mb 42f 50f
12:30 8 9 mph 1017.6mb 42f 50f
12:24 7 9 mph 1017.7mb 42f 50f
12:18 7 9 mph 1017.7mb - -
12:12 8 9 mph 1017.7mb 42f 50f
12:06 7 8 mph 1017.7mb 42f 50f
12:00 7 8 mph 1017.7mb 42f 50f
11:54 7 8 mph 1017.7mb 42f 50f
11:48 6 8 mph 1017.7mb 42f 50f
11:42 6 7 mph 1017.7mb 42f 50f
11:36 6 7 mph 1017.7mb 42f 49f
11:30 5 7 mph 1017.7mb 42f 49f
11:24 5 7 mph 1017.8mb 42f 49f
11:18 6 7 mph 1017.8mb 43f 49f
11:12 6 7 mph 1017.8mb 42f 49f
11:06 5 8 mph 1017.7mb 43f 48f
11:00 6 8 mph 1017.8mb 43f 48f
10:54 6 8 mph 1017.8mb 43f 48f
10:48 6 8 mph 1017.7mb 43f 48f
10:42 6 7 mph 1017.7mb 43f 49f
10:36 5 7 mph 1017.7mb 43f 48f
10:30 6 7 mph 1017.7mb 43f 48f
10:24 6 7 mph 1017.6mb 43f 48f
10:18 6 9 mph 1017.5mb 43f 48f
10:12 5 7 mph 1017.5mb 43f 48f
10:00 3 6 mph 1017.4mb 43f 48f
9:54 5 7 mph 1017.3mb 43f 47f
9:48 5 6 mph 1017.3mb 43f 46f
9:42 5 6 mph 1017.3mb 43f 47f
9:30 6
mph
1017.3mb 43f 46f
9:24 5 6 mph 1017.3mb 43f 46f
9:18 6
mph
1017.3mb 43f 46f
9:12 5 6 mph 1017.3mb 43f 46f
9:06 5 6 mph 1017.3mb 43f 46f
9:00 5 6 mph 1017.4mb 43f 47f
8:54 3 5 mph 1017.4mb 44f 46f
8:48 5 6 mph 1017.4mb 44f 46f
8:36 1 2 mph 1017.4mb 44f 46f
8:30 2 3 mph 1017.3mb 44f 45f
8:24 2 3 mph 1017.3mb 44f 45f
8:18 2 3 mph 1017.2mb 45f 44f
8:12 2 3 mph 1017.3mb 45f 44f
8:00 2 3 mph 1017.1mb 45f 43f
7:54 2 5 mph 1017.1mb 45f 43f
7:48 2 5 mph 1017.1mb 45f 43f
7:42 2 3 mph 1017mb 46f 43f
7:36 2 3 mph 1016.9mb 46f 42f
7:30 2 3 mph 1016.9mb 46f 42f
7:24 3 5 mph 1016.8mb 46f 42f
7:18 1 2 mph 1016.7mb 46f 41f
7:12 2
mph
1016.6mb 46f 41f
7:06  -  1 mph 1016.5mb 46f 42f
7:00 1 2 mph 1016.4mb 46f 41f
6:54 2 3 mph 1016.3mb 46f 41f
6:48 2 3 mph 1016.2mb 45f 40f
6:42 2 3 mph 1016.3mb 45f 41f
6:36 2 3 mph 1016.1mb 45f 40f
6:30 1 2 mph 1016.1mb 45f 40f
6:24  -  2 mph 1016.1mb 45f 41f
6:18 2
mph
1016mb 45f 40f
6:12 2 3 mph 1016mb 45f 40f
6:06 3
mph
1016mb 45f 40f
6:00 2 3 mph 1016mb 45f 40f
5:54 2 3 mph 1016mb 45f 40f
5:48 2 5 mph 1016mb 45f 40f
5:42 3 5 mph 1015.9mb 45f 40f
5:36 3 5 mph 1015.8mb 45f 40f
5:30 5 6 mph 1015.8mb 45f 40f
5:24 1 2 mph 1015.6mb 45f 40f
5:18  -  1 mph 1015.6mb 45f 40f
5:12  -  2 mph 1015.6mb 45f 40f
5:06 2 3 mph 1015.6mb 45f 40f
5:00 3 5 mph 1015.5mb 45f 39f
4:54 5 6 mph 1015.6mb 45f 39f
4:48 5 8 mph 1015.4mb 45f 38f
4:42 8 9 mph 1015.5mb 45f 38f
4:36  -  2 mph 1015.3mb 45f 39f
4:30  -  2 mph 1015.2mb 45f 39f
4:24 2 3 mph 1015.2mb 45f 39f
4:18 2 3 mph 1015.1mb 45f 39f
4:12 1 2 mph 1015.1mb 45f 40f
4:06 1 2 mph 1015.3mb 45f 40f
4:00 1 2 mph 1015.3mb 45f 39f
3:54 2 5 mph 1015.3mb 45f 40f
3:48 5 6 mph 1015.3mb 45f 39f
3:42 3 5 mph 1015.3mb 45f 38f
3:36 5
mph
1015.2mb 45f 38f
3:30 1 2 mph 1015.1mb 45f 39f
3:24 2
mph
1015.2mb 45f 39f
3:18 1 2 mph 1015.2mb 45f 39f
3:12  -  1 mph 1015.2mb 45f 38f
3:06 1 3 mph 1015.3mb 45f 38f
3:00 3
mph
1015.2mb 45f 38f
2:48 1 2 mph 1015.1mb 45f 39f
2:42  -  mph - - 39f
2:24 1 2 mph 1015.2mb - -
2:12 1 2 mph 1015.3mb 45f 39f
2:00 2
mph
1015.5mb 44f 40f
1:54 2
mph
1015.5mb 44f 40f
1:48 1 2 mph 1015.5mb 44f 40f
1:42  -  2 mph 1015.5mb 44f 40f
1:36 2
mph
1015.5mb 44f 40f
1:30 1
mph
1015.6mb 44f 40f
1:24 1 3 mph 1015.6mb 44f 40f
1:18 3
mph
1015.7mb 44f 40f
1:12 5
mph
1015.7mb 44f 40f
1:06 1
mph
1015.7mb 44f 41f
1:00 2
mph
1015.7mb 44f 41f
12:54 2 3 mph 1015.8mb 44f 41f
12:48 2
mph
1015.9mb 44f 42f
12:42 2
mph
1015.9mb 44f 42f
12:36 1 2 mph 1015.8mb 44f 42f
12:30 2 3 mph 1015.9mb 44f 42f
12:24 3
mph
1016mb 44f 42f
12:18 1 3 mph 1015.9mb 44f 42f
12:12 3 6 mph 1015.9mb 44f 42f
Sáb 05/02 11:54 1 2 mph 1015.8mb 43f 44f
11:48 1 2 mph 1015.7mb 43f 44f
11:42 1 2 mph 1015.8mb 44f 44f
11:36 1 3 mph 1015.8mb 44f 44f
11:30 3 6 mph 1015.8mb 44f 44f
11:24 2 6 mph 1015.7mb 44f 44f